Flight Track Log - Related Links

Times and Time Zones

All times are in EDT time to prevent confusion due to time zone crossing. See the CCA4351 flight status page for this flight to view local times or setup timezone preferences in your user account.

Time Position Orientation Groundspeed Altitude Reporting Facility
EDT Latitude Longitude Course Direction KTS MPH feet Rate Location/Type
Sat 09:48:32 AM 28.7884 105.5002 126° Southeast  Level Estimated
Sat 09:49:32 AM 28.7264 105.5980 126° Southeast  Level Estimated
Sat 09:50:32 AM 28.6644 105.6957 126° Southeast  Level Estimated
Sat 09:51:32 AM 28.6023 105.7933 126° Southeast  Level Estimated
Sat 09:52:32 AM 28.5401 105.8907 126° Southeast  Level Estimated
Sat 09:53:32 AM 28.4778 105.9881 126° Southeast  Level Estimated
Sat 09:54:32 AM 28.4155 106.0853 126° Southeast  Level Estimated
Sat 09:55:32 AM 28.3531 106.1824 126° Southeast  Level Estimated
Sat 09:56:32 AM 28.2906 106.2794 126° Southeast  Level Estimated
Sat 09:57:32 AM 28.2281 106.3763 126° Southeast  Level Estimated
Sat 09:58:32 AM 28.1655 106.4730 126° Southeast  Level Estimated
Sat 09:59:32 AM 28.1028 106.5697 126° Southeast  Level Estimated
Sat 10:00:32 AM 28.0401 106.6662 126° Southeast  Level Estimated
Sat 10:01:32 AM 27.9773 106.7627 126° Southeast  Level Estimated
Sat 10:02:32 AM 27.9144 106.8590 126° Southeast  Level Estimated
Sat 10:03:32 AM 27.8515 106.9552 127° Southeast  Level Estimated
Sat 10:04:32 AM 27.7885 107.0513 127° Southeast  Level Estimated
Sat 10:05:32 AM 27.7254 107.1472 127° Southeast  Level Estimated
Sat 10:06:32 AM 27.6622 107.2431 127° Southeast  Level Estimated
Sat 10:07:32 AM 27.5990 107.3389 127° Southeast  Level Estimated
Sat 10:08:32 AM 27.5358 107.4345 127° Southeast  Level Estimated
Sat 10:09:32 AM 27.4724 107.5301 127° Southeast  Level Estimated
Sat 10:10:32 AM 27.4090 107.6255 127° Southeast  Level Estimated
Sat 10:11:32 AM 27.3456 107.7208 127° Southeast  Level Estimated
Sat 10:12:32 AM 27.2820 107.8160 127° Southeast  Level Estimated
Sat 10:13:32 AM 27.2184 107.9111 127° Southeast  Level Estimated
Sat 10:14:32 AM 27.1548 108.0061 127° Southeast  Level Estimated
Sat 10:15:32 AM 27.0910 108.1010 127° Southeast  Level Estimated
Sat 10:16:32 AM 27.0273 108.1958 127° Southeast  Level Estimated
Sat 10:17:32 AM 26.9634 108.2905 127° Southeast  Level Estimated
Sat 10:18:32 AM 26.8995 108.3850 127° Southeast  Level Estimated
Sat 10:19:32 AM 26.8355 108.4795 127° Southeast  Level Estimated
Sat 10:20:32 AM 26.7715 108.5738 127° Southeast  Level Estimated
Sat 10:21:32 AM 26.7074 108.6681 127° Southeast  Level Estimated
Sat 10:22:32 AM 26.6432 108.7622 127° Southeast  Level Estimated
Sat 10:23:32 AM 26.5790 108.8562 127° Southeast  Level Estimated
Sat 10:24:32 AM 26.5147 108.9502 127° Southeast  Level Estimated
Sat 10:25:32 AM 26.4503 109.0440 127° Southeast  Level Estimated
Sat 10:26:32 AM 26.3859 109.1377 128° Southeast  Level Estimated
Sat 10:27:32 AM 26.3215 109.2313 128° Southeast  Level Estimated
Sat 10:28:32 AM 26.2569 109.3248 128° Southeast  Level Estimated
Sat 10:29:32 AM 26.1923 109.4182 128° Southeast  Level Estimated
Sat 10:30:32 AM 26.1277 109.5115 128° Southeast  Level Estimated
Sat 10:31:32 AM 26.0630 109.6047 128° Southeast  Level Estimated
Sat 10:32:32 AM 25.9982 109.6978 128° Southeast  Level Estimated
Sat 10:33:32 AM 25.9334 109.7908 128° Southeast  Level Estimated
Sat 10:34:32 AM 25.8685 109.8837 128° Southeast  Level Estimated
Sat 10:35:32 AM 25.8035 109.9765 128° Southeast  Level Estimated
Sat 10:36:32 AM 25.7385 110.0692 128° Southeast  Level Estimated
Sat 10:37:32 AM 25.6735 110.1617 128° Southeast  Level Estimated
Sat 10:38:32 AM 25.6083 110.2542 128° Southeast  Level Estimated
Sat 10:39:32 AM 25.5431 110.3466 128° Southeast  Level Estimated
Sat 10:40:32 AM 25.4779 110.4389 128° Southeast  Level Estimated
Sat 10:41:32 AM 25.4126 110.5311 128° Southeast  Level Estimated
Sat 10:42:32 AM 25.3472 110.6232 128° Southeast  Level Estimated
Sat 10:43:32 AM 25.2818 110.7151 128° Southeast  Level Estimated
Sat 10:44:32 AM 25.2164 110.8070 128° Southeast  Level Estimated
Sat 10:45:32 AM 25.1508 110.8988 128° Southeast  Level Estimated
Sat 10:46:32 AM 25.0853 110.9905 128° Southeast  Level Estimated
Sat 10:47:32 AM 25.0196 111.0821 128° Southeast  Level Estimated
Sat 10:48:32 AM 24.9539 111.1736 128° Southeast  Level Estimated
Sat 10:49:32 AM 24.8882 111.2650 128° Southeast  Level Estimated
Sat 10:50:32 AM 24.8224 111.3563 128° Southeast  Level Estimated
Sat 10:51:32 AM 24.7565 111.4475 129° Southeast  Level Estimated
Sat 10:52:32 AM 24.6906 111.5386 129° Southeast  Level Estimated
Sat 10:53:32 AM 24.6246 111.6296 129° Southeast  Level Estimated
Sat 10:54:32 AM 24.5586 111.7205 129° Southeast  Level Estimated
Sat 10:55:32 AM 24.4925 111.8113 129° Southeast  Level Estimated
Sat 10:56:32 AM 24.4263 111.9020 129° Southeast  Level Estimated
Sat 10:57:32 AM 24.3602 111.9926 129° Southeast  Level Estimated
Sat 10:58:32 AM 24.2939 112.0832 129° Southeast  Level Estimated
Sat 10:59:32 AM 24.2276 112.1736 129° Southeast  Level Estimated
Sat 11:00:32 AM 24.1613 112.2639 129° Southeast  Level Estimated
Sat 11:01:32 AM 24.0949 112.3541 129° Southeast  Level Estimated
Sat 11:02:32 AM 24.0284 112.4443 129° Southeast  Level Estimated
Sat 11:03:32 AM 23.9619 112.5343 129° Southeast  Level Estimated
Sat 11:04:32 AM 23.8953 112.6243 129° Southeast  Level Estimated
Sat 11:05:32 AM 23.8287 112.7142 129° Southeast  Level Estimated
Sat 11:06:32 AM 23.7620 112.8040 129° Southeast  Level Estimated
Sat 11:07:32 AM 23.6953 112.8936 129° Southeast  Level Estimated
Sat 11:08:32 AM 23.6285 112.9832 129° Southeast  Level Estimated
Sat 11:09:32 AM 23.5617 113.0727 129° Southeast  Level Estimated
Sat 11:10:32 AM 23.4949 113.1621 129° Southeast  Level Estimated
Sat 11:11:32 AM 23.4279 113.2515 129° Southeast  Level Estimated
Sat 11:12:32 AM 23.3610 113.3407 309° West  Level Estimated
Sat 11:13:32 AM 23.4279 113.2515 129° Southeast  Level Estimated
Sat 11:14:32 AM 23.3610 113.3407 309° West  Level Estimated
Sat 11:15:32 AM 23.4279 113.2515 129° Southeast  Level Estimated
Sat 11:16:32 AM 23.3610 113.3407 309° West  Level Estimated
Sat 11:17:32 AM 23.4279 113.2515 309° West  Level Estimated

Login

Don't have an account? Register now (free) for customized features, flight alerts, and more!